createdAt,value
2022-09-06T00:01:17.123Z,101104.28
2022-09-06T00:03:44.790Z,101103.34
2022-09-06T00:06:15.956Z,101098.47
2022-09-06T00:08:44.132Z,101105.06
2022-09-06T00:11:11.115Z,101107.56
2022-09-06T00:13:38.571Z,101105.97
2022-09-06T00:16:11.308Z,101110.81
2022-09-06T00:18:38.203Z,101096.88
2022-09-06T00:21:15.258Z,101092.19
2022-09-06T00:23:41.939Z,101087.50
2022-09-06T00:26:08.529Z,101091.06
2022-09-06T00:28:34.991Z,101094.22
2022-09-06T00:31:31.876Z,101098.44
2022-09-06T00:33:58.450Z,101093.13
2022-09-06T00:36:24.935Z,101099.06
2022-09-06T00:38:51.452Z,101089.53
2022-09-06T00:41:18.038Z,101087.78
2022-09-06T00:43:45.189Z,101092.19
2022-09-06T00:46:23.464Z,101086.69
2022-09-06T00:48:56.367Z,101088.75
2022-09-06T00:51:26.346Z,101090.75
2022-09-06T00:53:52.948Z,101079.50
2022-09-06T00:56:19.641Z,101083.56
2022-09-06T00:58:48.635Z,101074.16
2022-09-06T01:01:15.254Z,101073.53
2022-09-06T01:03:42.742Z,101073.03
2022-09-06T01:06:18.203Z,101074.78
2022-09-06T01:08:50.411Z,101079.91
2022-09-06T01:11:22.783Z,101103.28
2022-09-06T01:14:01.428Z,101114.28
2022-09-06T01:17:03.254Z,101132.72
2022-09-06T01:19:52.428Z,101127.84
2022-09-06T01:22:58.891Z,101137.22
2022-09-06T01:25:52.900Z,101142.56
2022-09-06T01:28:41.169Z,101146.78
2022-09-06T01:31:44.599Z,101139.47
2022-09-06T01:34:37.974Z,101140.00
2022-09-06T01:37:14.401Z,101134.06
2022-09-06T01:39:42.026Z,101136.53
2022-09-06T01:42:27.368Z,101151.22
2022-09-06T01:44:59.609Z,101157.63
2022-09-06T01:47:47.975Z,101154.69
2022-09-06T01:50:32.801Z,101154.06
2022-09-06T01:53:04.800Z,101170.59
2022-09-06T01:55:58.812Z,101167.59
2022-09-06T01:58:32.140Z,101168.19
2022-09-06T02:01:07.467Z,101169.81
2022-09-06T02:03:51.042Z,101173.34
2022-09-06T02:06:24.174Z,101165.75
2022-09-06T02:08:57.194Z,101157.03
2022-09-06T02:11:26.931Z,101154.34
2022-09-06T02:14:03.014Z,101171.88
2022-09-06T02:16:32.280Z,101167.56
2022-09-06T02:19:17.388Z,101163.50
2022-09-06T02:21:47.365Z,101160.72
2022-09-06T02:24:21.605Z,101163.88
2022-09-06T02:26:49.104Z,101157.97
2022-09-06T02:29:16.699Z,101153.75
2022-09-06T02:31:47.706Z,101155.31
2022-09-06T02:34:17.898Z,101159.41
2022-09-06T02:36:45.098Z,101147.66
2022-09-06T02:39:12.273Z,101147.38
2022-09-06T02:41:41.025Z,101137.84
2022-09-06T02:44:07.522Z,101141.78
2022-09-06T02:46:34.047Z,101143.50
2022-09-06T02:49:00.659Z,101137.66
2022-09-06T02:51:27.243Z,101128.13
2022-09-06T02:53:53.826Z,101127.47
2022-09-06T02:56:20.344Z,101128.75
2022-09-06T02:58:46.914Z,101124.50
2022-09-06T03:01:13.432Z,101133.63
2022-09-06T03:03:39.932Z,101130.13
2022-09-06T03:06:06.702Z,101116.84
2022-09-06T03:08:34.175Z,101103.38
2022-09-06T03:11:01.207Z,101110.72
2022-09-06T03:13:28.547Z,101106.34
2022-09-06T03:15:57.545Z,101105.00
2022-09-06T03:18:25.645Z,101115.13
2022-09-06T03:20:53.793Z,101125.59
2022-09-06T03:23:22.219Z,101132.28
2022-09-06T03:25:48.789Z,101134.66
2022-09-06T03:28:15.866Z,101132.44
2022-09-06T03:30:45.218Z,101130.41
2022-09-06T03:33:12.751Z,101141.81
2022-09-06T03:35:39.311Z,101146.91
2022-09-06T03:38:05.958Z,101144.84
2022-09-06T03:40:32.498Z,101135.94
2022-09-06T03:42:59.086Z,101131.28
2022-09-06T03:45:25.626Z,101139.09
2022-09-06T03:47:52.077Z,101133.94
2022-09-06T03:50:18.547Z,101131.19
2022-09-06T03:52:44.998Z,101125.28
2022-09-06T03:55:11.995Z,101137.63
2022-09-06T03:57:38.473Z,101144.34
2022-09-06T04:00:05.502Z,101124.94
2022-09-06T04:02:32.028Z,101114.75
2022-09-06T04:04:58.558Z,101112.41
2022-09-06T04:07:25.375Z,101113.66
2022-09-06T04:09:51.809Z,101110.00
2022-09-06T04:12:18.285Z,101091.25
2022-09-06T04:14:44.749Z,101083.84
2022-09-06T04:17:12.374Z,101090.53
2022-09-06T04:19:38.826Z,101109.13
2022-09-06T04:22:05.502Z,101094.91
2022-09-06T04:24:31.982Z,101093.53
2022-09-06T04:26:58.531Z,101093.28
2022-09-06T04:29:25.036Z,101097.88
2022-09-06T04:31:51.513Z,101097.06
2022-09-06T04:34:19.674Z,101097.00
2022-09-06T04:36:48.505Z,101113.72
2022-09-06T04:39:15.502Z,101112.38
2022-09-06T04:41:42.624Z,101113.16
2022-09-06T04:44:09.384Z,101121.75
2022-09-06T04:46:35.937Z,101137.50
2022-09-06T04:49:02.430Z,101151.34
2022-09-06T04:51:28.970Z,101156.06
2022-09-06T04:53:55.508Z,101150.44
2022-09-06T04:56:25.181Z,101164.69
2022-09-06T04:58:53.874Z,101160.53
2022-09-06T05:01:20.935Z,101162.44
2022-09-06T05:03:47.790Z,101157.63
2022-09-06T05:06:20.773Z,101155.56
2022-09-06T05:08:47.415Z,101153.31
2022-09-06T05:11:13.921Z,101162.56
2022-09-06T05:13:41.095Z,101164.94
2022-09-06T05:16:08.821Z,101165.25
2022-09-06T05:18:36.010Z,101169.19
2022-09-06T05:21:02.628Z,101170.44
2022-09-06T05:23:29.365Z,101160.44
2022-09-06T05:25:55.923Z,101160.44
2022-09-06T05:28:23.075Z,101151.53
2022-09-06T05:30:49.556Z,101141.50
2022-09-06T05:33:21.844Z,101143.09
2022-09-06T05:35:48.946Z,101128.38
2022-09-06T05:38:15.683Z,101132.53
2022-09-06T05:40:42.229Z,101129.25
2022-09-06T05:43:08.714Z,101132.53
2022-09-06T05:45:35.262Z,101122.84
2022-09-06T05:48:01.958Z,101119.38
2022-09-06T05:50:28.431Z,101129.72
2022-09-06T05:52:54.901Z,101115.50
2022-09-06T05:55:21.364Z,101117.13
2022-09-06T05:57:47.879Z,101108.31
2022-09-06T06:00:14.670Z,101102.81
2022-09-06T06:02:41.245Z,101101.72
2022-09-06T06:05:08.358Z,101103.75
2022-09-06T06:07:34.908Z,101115.00
2022-09-06T06:10:01.458Z,101126.34
2022-09-06T06:12:27.975Z,101126.69
2022-09-06T06:14:54.426Z,101137.38
2022-09-06T06:17:20.900Z,101136.25
2022-09-06T06:19:47.546Z,101137.50
2022-09-06T06:22:14.037Z,101139.97
2022-09-06T06:24:40.489Z,101141.75
2022-09-06T06:27:06.955Z,101131.63
2022-09-06T06:29:33.528Z,101131.84
2022-09-06T06:32:00.041Z,101131.44
2022-09-06T06:34:26.629Z,101131.84
2022-09-06T06:36:53.058Z,101135.94
2022-09-06T06:39:19.611Z,101130.50
2022-09-06T06:41:46.244Z,101136.75
2022-09-06T06:44:12.736Z,101143.66
2022-09-06T06:46:39.375Z,101136.31
2022-09-06T06:49:06.245Z,101139.63
2022-09-06T06:51:37.059Z,101131.69
2022-09-06T06:54:04.685Z,101130.63
2022-09-06T06:56:32.654Z,101124.25
2022-09-06T06:59:01.432Z,101129.31
2022-09-06T07:01:30.010Z,101123.06
2022-09-06T07:03:58.337Z,101121.97
2022-09-06T07:09:15.228Z,101116.88
2022-09-06T07:11:42.099Z,101127.84
2022-09-06T07:14:08.902Z,101125.06
2022-09-06T07:16:35.405Z,101126.63
2022-09-06T07:19:02.192Z,101121.78
2022-09-06T07:24:05.836Z,101126.66
2022-09-06T07:26:33.711Z,101125.41
2022-09-06T07:29:01.785Z,101131.06
2022-09-06T07:34:17.614Z,101129.16
2022-09-06T07:36:44.148Z,101136.84
2022-09-06T07:39:10.700Z,101133.53
2022-09-06T07:41:37.216Z,101128.97
2022-09-06T07:44:03.668Z,101126.47
2022-09-06T07:46:30.218Z,101134.25
2022-09-06T07:48:56.777Z,101128.91
2022-09-06T07:51:23.399Z,101125.56
2022-09-06T07:53:57.863Z,101118.91
2022-09-06T07:56:33.974Z,101127.97
2022-09-06T07:59:00.453Z,101123.31
2022-09-06T08:01:35.370Z,101111.88
2022-09-06T08:04:05.993Z,101111.00
2022-09-06T08:09:22.821Z,101119.56
2022-09-06T08:11:51.021Z,101124.53
2022-09-06T08:14:17.554Z,101126.69
2022-09-06T08:16:44.138Z,101122.41
2022-09-06T08:19:12.310Z,101122.41
2022-09-06T08:21:39.160Z,101126.63
2022-09-06T08:24:07.954Z,101126.66
2022-09-06T08:26:36.418Z,101118.81
2022-09-06T08:29:06.822Z,101121.03
2022-09-06T08:31:35.574Z,101129.44
2022-09-06T08:34:03.563Z,101122.19
2022-09-06T08:36:30.783Z,101128.13
2022-09-06T08:39:05.364Z,101131.84
2022-09-06T08:41:50.092Z,101125.28
2022-09-06T08:47:21.128Z,101127.22
2022-09-06T08:49:50.759Z,101125.59
2022-09-06T08:52:20.009Z,101125.53
2022-09-06T08:55:09.976Z,101130.44
2022-09-06T08:57:57.972Z,101118.72
2022-09-06T09:00:24.703Z,101123.53
2022-09-06T09:03:06.747Z,101123.63
2022-09-06T09:05:36.201Z,101119.47
2022-09-06T09:08:24.092Z,101121.25
2022-09-06T09:11:03.692Z,101122.50
2022-09-06T09:13:36.234Z,101109.31
2022-09-06T09:16:02.813Z,101105.09
2022-09-06T09:18:34.067Z,101110.06
2022-09-06T09:21:00.664Z,101102.00
2022-09-06T09:23:29.577Z,101112.69
2022-09-06T09:26:00.965Z,101109.63
2022-09-06T09:28:27.561Z,101111.25
2022-09-06T09:30:56.847Z,101102.63
2022-09-06T09:33:35.475Z,101100.06
2022-09-06T09:36:07.355Z,101100.06
2022-09-06T09:38:42.806Z,101101.88
2022-09-06T09:41:23.828Z,101091.56
2022-09-06T09:44:02.260Z,101092.09
2022-09-06T09:46:33.174Z,101088.25
2022-09-06T09:49:10.326Z,101087.06
2022-09-06T09:51:39.743Z,101082.41
2022-09-06T09:54:12.580Z,101081.69
2022-09-06T09:56:43.422Z,101080.56
2022-09-06T09:59:20.612Z,101076.91
2022-09-06T10:01:47.881Z,101073.59
2022-09-06T10:07:18.022Z,101071.63
2022-09-06T10:10:00.627Z,101060.22
2022-09-06T10:12:30.122Z,101065.47
2022-09-06T10:14:57.237Z,101065.75
2022-09-06T10:17:38.046Z,101068.63
2022-09-06T10:20:13.893Z,101060.09
2022-09-06T10:22:49.454Z,101061.91
2022-09-06T10:25:34.318Z,101067.34
2022-09-06T10:28:28.112Z,101059.03
2022-09-06T10:30:57.697Z,101060.59
2022-09-06T10:34:06.010Z,101056.72
2022-09-06T10:36:44.984Z,101047.84
2022-09-06T10:39:23.837Z,101038.19
2022-09-06T10:42:04.921Z,101049.00
2022-09-06T10:45:08.108Z,101046.88
2022-09-06T10:47:55.184Z,101036.41
2022-09-06T10:50:25.888Z,101047.22
2022-09-06T10:52:53.844Z,101043.66
2022-09-06T10:55:21.058Z,101045.00
2022-09-06T10:58:20.679Z,101050.19
2022-09-06T11:00:49.693Z,101036.94
2022-09-06T11:06:26.705Z,101045.56
2022-09-06T11:08:58.525Z,101055.41
2022-09-06T11:11:47.549Z,101052.59
2022-09-06T11:14:15.583Z,101041.13
2022-09-06T11:16:51.915Z,101041.31
2022-09-06T11:19:27.536Z,101036.88
2022-09-06T11:22:07.550Z,101044.56
2022-09-06T11:24:55.763Z,101043.06
2022-09-06T11:27:32.127Z,101038.50
2022-09-06T11:30:01.311Z,101028.56
2022-09-06T11:32:30.480Z,101045.81
2022-09-06T11:35:01.173Z,101041.84
2022-09-06T11:37:39.558Z,101041.28
2022-09-06T11:42:55.406Z,101028.66
2022-09-06T11:45:38.936Z,101038.28
2022-09-06T11:48:23.953Z,101042.44
2022-09-06T11:50:53.370Z,101045.31
2022-09-06T11:53:21.684Z,101041.34
2022-09-06T11:55:51.302Z,101042.16
2022-09-06T11:58:17.779Z,101036.75
2022-09-06T12:00:46.320Z,101034.31
2022-09-06T12:06:32.478Z,101029.16
2022-09-06T12:08:59.970Z,101035.00
2022-09-06T12:11:41.711Z,101029.19
2022-09-06T12:14:32.473Z,101030.75
2022-09-06T12:16:59.074Z,101037.00
2022-09-06T12:19:45.124Z,101035.09
2022-09-06T12:22:47.662Z,101026.50
2022-09-06T12:25:37.078Z,101020.06
2022-09-06T12:28:20.132Z,101014.16
2022-09-06T12:30:48.084Z,101012.75
2022-09-06T12:33:23.767Z,101001.28
2022-09-06T12:35:58.621Z,101013.88
2022-09-06T12:38:25.990Z,101000.38
2022-09-06T12:43:42.341Z,100993.59
2022-09-06T12:46:08.919Z,100996.84
2022-09-06T12:48:41.119Z,100997.53
2022-09-06T12:51:20.050Z,101001.50
2022-09-06T12:53:54.451Z,100995.53
2022-09-06T12:56:23.091Z,100988.63
2022-09-06T12:58:49.849Z,101003.00
2022-09-06T13:01:25.839Z,100998.31
2022-09-06T13:03:58.433Z,100993.41
2022-09-06T13:06:27.373Z,100996.56
2022-09-06T13:08:57.153Z,100990.34
2022-09-06T13:11:28.189Z,100984.81
2022-09-06T13:13:55.346Z,100987.75
2022-09-06T13:16:25.009Z,100983.00
2022-09-06T13:18:51.804Z,100983.72
2022-09-06T13:21:35.134Z,100989.97
2022-09-06T13:24:37.687Z,100983.59
2022-09-06T13:27:45.957Z,100973.25
2022-09-06T13:30:33.855Z,100972.91
2022-09-06T13:33:01.194Z,100977.41
2022-09-06T13:35:34.351Z,100973.53
2022-09-06T13:38:20.938Z,100969.72
2022-09-06T13:43:45.126Z,100964.88
2022-09-06T13:46:12.025Z,100970.22
2022-09-06T13:48:43.003Z,100965.28
2022-09-06T13:51:10.045Z,100960.53
2022-09-06T13:53:36.587Z,100956.03
2022-09-06T13:56:03.709Z,100955.38
2022-09-06T13:58:30.375Z,100953.31
2022-09-06T14:00:57.069Z,100960.66
2022-09-06T14:03:31.780Z,100956.44
2022-09-06T14:06:00.253Z,100952.75
2022-09-06T14:08:43.665Z,100961.09
2022-09-06T14:11:17.646Z,100958.91
2022-09-06T14:13:44.380Z,100956.59
2022-09-06T14:16:11.911Z,100952.22
2022-09-06T14:18:38.666Z,100951.81
2022-09-06T14:21:05.437Z,100947.00
2022-09-06T14:23:31.979Z,100945.69
2022-09-06T14:26:00.204Z,100943.97
2022-09-06T14:28:27.529Z,100938.94
2022-09-06T14:30:55.013Z,100940.97
2022-09-06T14:33:21.588Z,100931.56
2022-09-06T14:35:48.885Z,100936.94
2022-09-06T14:38:15.768Z,100942.28
2022-09-06T14:40:45.370Z,100934.84
2022-09-06T14:43:11.970Z,100925.00
2022-09-06T14:45:38.552Z,100932.91
2022-09-06T14:48:05.668Z,100920.78
2022-09-06T14:50:32.515Z,100919.38
2022-09-06T14:52:59.195Z,100922.31
2022-09-06T14:55:28.047Z,100919.41
2022-09-06T14:57:54.678Z,100912.13
2022-09-06T15:00:21.355Z,100912.34
2022-09-06T15:02:47.886Z,100913.06
2022-09-06T15:05:14.520Z,100906.41
2022-09-06T15:07:41.016Z,100901.34
2022-09-06T15:10:07.846Z,100902.53
2022-09-06T15:12:34.348Z,100902.53
2022-09-06T15:15:00.929Z,100895.44
2022-09-06T15:17:27.416Z,100897.25
2022-09-06T15:19:54.312Z,100891.91
2022-09-06T15:22:20.890Z,100876.34
2022-09-06T15:24:47.454Z,100881.91
2022-09-06T15:27:13.991Z,100878.25
2022-09-06T15:29:41.157Z,100879.72
2022-09-06T15:32:07.660Z,100883.00
2022-09-06T15:34:35.179Z,100866.63
2022-09-06T15:37:01.712Z,100878.25
2022-09-06T15:39:28.310Z,100872.47
2022-09-06T15:41:54.872Z,100863.94
2022-09-06T15:44:21.686Z,100860.84
2022-09-06T15:46:59.497Z,100866.72
2022-09-06T15:49:34.627Z,100860.25
2022-09-06T15:52:02.665Z,100860.59
2022-09-06T15:54:48.587Z,100857.25
2022-09-06T15:57:16.562Z,100856.25
2022-09-06T15:59:43.698Z,100861.34
2022-09-06T16:02:10.701Z,100848.53
2022-09-06T16:04:37.420Z,100849.56
2022-09-06T16:07:04.169Z,100849.84
2022-09-06T16:09:31.770Z,100841.66
2022-09-06T16:11:58.428Z,100843.44
2022-09-06T16:14:25.251Z,100835.59
2022-09-06T16:16:55.032Z,100827.53
2022-09-06T16:19:21.714Z,100836.28
2022-09-06T16:21:48.285Z,100836.28
2022-09-06T16:24:15.295Z,100836.53
2022-09-06T16:26:43.683Z,100838.94
2022-09-06T16:29:12.009Z,100833.72
2022-09-06T16:31:40.636Z,100829.66
2022-09-06T16:34:08.908Z,100840.13
2022-09-06T16:36:36.303Z,100840.00
2022-09-06T16:39:04.133Z,100825.88
2022-09-06T16:41:49.445Z,100839.28
2022-09-06T16:44:18.183Z,100835.97
2022-09-06T16:46:47.083Z,100834.72
2022-09-06T16:49:16.403Z,100828.56
2022-09-06T16:51:43.643Z,100826.25
2022-09-06T16:54:10.252Z,100833.34
2022-09-06T16:56:36.989Z,100832.13
2022-09-06T16:59:06.323Z,100830.09
2022-09-06T17:01:34.252Z,100831.06
2022-09-06T17:04:04.466Z,100831.00
2022-09-06T17:06:33.131Z,100830.41
2022-09-06T17:09:00.020Z,100828.63
2022-09-06T17:11:27.966Z,100833.84
2022-09-06T17:13:55.583Z,100831.38
2022-09-06T17:16:41.099Z,100842.69
2022-09-06T17:19:08.105Z,100836.16
2022-09-06T17:21:35.514Z,100841.47
2022-09-06T17:24:04.537Z,100834.31
2022-09-06T17:26:33.099Z,100852.91
2022-09-06T17:28:59.667Z,100840.63
2022-09-06T17:31:26.469Z,100847.25
2022-09-06T17:33:53.417Z,100843.44
2022-09-06T17:36:25.053Z,100845.09
2022-09-06T17:38:53.557Z,100843.16
2022-09-06T17:41:27.403Z,100840.69
2022-09-06T17:43:54.892Z,100837.69
2022-09-06T17:46:27.868Z,100837.53
2022-09-06T17:48:55.299Z,100840.47
2022-09-06T17:51:21.850Z,100838.47
2022-09-06T17:53:48.508Z,100836.47
2022-09-06T17:56:16.739Z,100847.63
2022-09-06T17:58:44.556Z,100845.84
2022-09-06T18:01:14.734Z,100839.16
2022-09-06T18:03:42.327Z,100842.03
2022-09-06T18:06:19.904Z,100833.72
2022-09-06T18:08:47.869Z,100830.38
2022-09-06T18:11:18.003Z,100839.22
2022-09-06T18:13:45.585Z,100844.16
2022-09-06T18:16:14.094Z,100845.19
2022-09-06T18:18:41.644Z,100843.06
2022-09-06T18:21:08.256Z,100842.28
2022-09-06T18:23:35.505Z,100842.81
2022-09-06T18:26:05.670Z,100842.28
2022-09-06T18:28:34.584Z,100848.22
2022-09-06T18:31:07.980Z,100837.09
2022-09-06T18:33:35.240Z,100842.19
2022-09-06T18:36:02.177Z,100839.03
2022-09-06T18:38:28.886Z,100841.13
2022-09-06T18:40:57.685Z,100833.09
2022-09-06T18:43:28.339Z,100828.66
2022-09-06T18:46:10.536Z,100833.28
2022-09-06T18:48:37.676Z,100832.97
2022-09-06T18:51:12.942Z,100832.91
2022-09-06T18:53:44.753Z,100837.53
2022-09-06T18:56:13.680Z,100841.34
2022-09-06T18:58:40.875Z,100835.59
2022-09-06T19:01:13.564Z,100836.31
2022-09-06T19:03:41.240Z,100827.75
2022-09-06T19:06:15.139Z,100840.59
2022-09-06T19:08:42.073Z,100832.03
2022-09-06T19:11:11.695Z,100839.09
2022-09-06T19:13:40.386Z,100830.78
2022-09-06T19:16:08.350Z,100839.00
2022-09-06T19:18:35.530Z,100840.47
2022-09-06T19:21:05.208Z,100834.97
2022-09-06T19:23:33.548Z,100833.34
2022-09-06T19:26:07.581Z,100829.19
2022-09-06T19:28:35.700Z,100826.84
2022-09-06T19:31:13.472Z,100820.00
2022-09-06T19:33:41.573Z,100819.16
2022-09-06T19:36:11.876Z,100808.28
2022-09-06T19:39:02.157Z,100805.88
2022-09-06T19:41:28.341Z,100791.84
2022-09-06T19:43:57.072Z,100801.88
2022-09-06T19:46:24.169Z,100795.56
2022-09-06T19:48:52.524Z,100794.47
2022-09-06T19:51:19.875Z,100790.56
2022-09-06T19:53:53.043Z,100782.78
2022-09-06T19:56:25.217Z,100779.84
2022-09-06T19:58:57.175Z,100776.72
2022-09-06T20:01:25.966Z,100762.72
2022-09-06T20:03:53.004Z,100766.69
2022-09-06T20:06:19.648Z,100755.16
2022-09-06T20:08:50.501Z,100757.19
2022-09-06T20:11:18.007Z,100770.59
2022-09-06T20:13:45.079Z,100770.78
2022-09-06T20:16:12.900Z,100774.13
2022-09-06T20:18:40.180Z,100759.59
2022-09-06T20:21:07.216Z,100764.44
2022-09-06T20:23:34.759Z,100754.09
2022-09-06T20:26:05.812Z,100755.84
2022-09-06T20:28:33.011Z,100762.72
2022-09-06T20:31:16.332Z,100760.28
2022-09-06T20:33:48.505Z,100754.94
2022-09-06T20:36:16.209Z,100762.63
2022-09-06T20:38:43.985Z,100745.75
2022-09-06T20:41:11.780Z,100751.13
2022-09-06T20:43:39.722Z,100752.88
2022-09-06T20:46:12.725Z,100753.59
2022-09-06T20:48:44.186Z,100752.53
2022-09-06T20:51:19.762Z,100757.63
2022-09-06T20:53:47.307Z,100768.88
2022-09-06T20:56:16.663Z,100786.19
2022-09-06T20:58:51.002Z,100790.78
2022-09-06T21:01:22.456Z,100784.66
2022-09-06T21:03:54.542Z,100779.56
2022-09-06T21:06:22.446Z,100778.59
2022-09-06T21:08:49.797Z,100774.66
2022-09-06T21:11:16.819Z,100779.34
2022-09-06T21:13:43.821Z,100778.16
2022-09-06T21:16:10.364Z,100774.94
2022-09-06T21:18:37.336Z,100776.69
2022-09-06T21:21:06.751Z,100770.16
2022-09-06T21:23:36.071Z,100768.59
2022-09-06T21:26:05.291Z,100772.41
2022-09-06T21:28:34.148Z,100776.72
2022-09-06T21:31:03.685Z,100781.31
2022-09-06T21:33:32.325Z,100781.72
2022-09-06T21:36:06.821Z,100777.53
2022-09-06T21:38:34.798Z,100781.41
2022-09-06T21:41:01.945Z,100784.72
2022-09-06T21:43:28.525Z,100789.81
2022-09-06T21:45:55.158Z,100798.59
2022-09-06T21:48:21.710Z,100793.03
2022-09-06T21:50:48.377Z,100806.13
2022-09-06T21:53:15.527Z,100806.59
2022-09-06T21:55:42.309Z,100801.81
2022-09-06T21:58:08.864Z,100803.94
2022-09-06T22:00:35.653Z,100799.94
2022-09-06T22:03:02.566Z,100790.34
2022-09-06T22:05:29.125Z,100786.31
2022-09-06T22:07:55.639Z,100788.41
2022-09-06T22:10:23.802Z,100773.69
2022-09-06T22:12:50.668Z,100772.34
2022-09-06T22:15:18.962Z,100771.00
2022-09-06T22:17:45.458Z,100755.69
2022-09-06T22:20:12.209Z,100753.97
2022-09-06T22:22:38.805Z,100741.94
2022-09-06T22:25:05.882Z,100742.97
2022-09-06T22:27:32.447Z,100724.97
2022-09-06T22:29:58.936Z,100717.06
2022-09-06T22:32:25.706Z,100721.19
2022-09-06T22:34:52.271Z,100711.69
2022-09-06T22:37:18.816Z,100702.19
2022-09-06T22:39:45.351Z,100692.41
2022-09-06T22:42:11.858Z,100685.44
2022-09-06T22:44:38.847Z,100691.63
2022-09-06T22:47:05.412Z,100675.41
2022-09-06T22:49:31.942Z,100668.44
2022-09-06T22:51:58.499Z,100668.94
2022-09-06T22:54:25.073Z,100661.44
2022-09-06T22:56:51.616Z,100667.91
2022-09-06T22:59:18.215Z,100659.44
2022-09-06T23:01:44.802Z,100646.56
2022-09-06T23:04:11.429Z,100656.56
2022-09-06T23:06:37.959Z,100659.69
2022-09-06T23:09:05.845Z,100652.69
2022-09-06T23:11:32.718Z,100641.34
2022-09-06T23:14:00.597Z,100639.78
2022-09-06T23:16:28.147Z,100641.81
2022-09-06T23:18:55.488Z,100641.47
2022-09-06T23:21:24.301Z,100654.31
2022-09-06T23:23:52.895Z,100660.25
2022-09-06T23:26:25.562Z,100671.84
2022-09-06T23:28:56.511Z,100657.94
2022-09-06T23:31:25.499Z,100670.72
2022-09-06T23:33:57.194Z,100682.16
2022-09-06T23:36:24.592Z,100694.09
2022-09-06T23:38:51.473Z,100687.63
2022-09-06T23:41:18.487Z,100677.34
2022-09-06T23:43:45.059Z,100677.13
2022-09-06T23:46:13.291Z,100681.66
2022-09-06T23:48:40.134Z,100699.91
2022-09-06T23:51:07.044Z,100768.53
2022-09-06T23:53:33.603Z,100808.13
2022-09-06T23:56:00.504Z,100833.41
2022-09-06T23:58:27.446Z,100860.56
